Time;durP1;ratioP1;P1;durP2;ratioP2;P2;SDS_P1;SDS_P2;PMS_P1;PMS_P2;Temp;Humidity;BMP_temperature;BMP_pressure;BME280_temperature;BME280_humidity;BME280_pressure;Samples;Min_cycle;Max_cycle;Signal;HPM_P1;HPM_P2
2023/04/21 00:00:46;;;;;;;16.30;12.18;;;5.80;99.90;;;;;;5046155;28;20049;-37
2023/04/21 00:03:13;;;;;;;13.23;10.13;;;5.80;99.90;;;;;;5046353;28;20045;-36
2023/04/21 00:05:41;;;;;;;13.27;10.77;;;5.80;99.90;;;;;;5045400;28;20057;-37
2023/04/21 00:08:09;;;;;;;10.90;9.00;;;5.80;99.90;;;;;;5045923;28;20053;-36
2023/04/21 00:10:36;;;;;;;15.85;10.93;;;5.90;99.90;;;;;;5045607;28;20044;-40
2023/04/21 00:13:04;;;;;;;14.65;11.38;;;5.90;99.90;;;;;;5045266;28;20060;-36
2023/04/21 00:15:32;;;;;;;12.77;11.43;;;5.90;99.90;;;;;;5045744;28;20371;-36
2023/04/21 00:18:00;;;;;;;12.32;9.38;;;5.90;99.90;;;;;;5046308;28;20068;-37
2023/04/21 00:20:27;;;;;;;13.45;10.50;;;5.80;99.90;;;;;;5045791;28;20056;-36
2023/04/21 00:22:56;;;;;;;13.45;10.68;;;5.80;99.90;;;;;;5045439;28;20041;-36
2023/04/21 00:25:24;;;;;;;13.82;12.13;;;5.80;99.90;;;;;;5046773;28;20052;-36
2023/04/21 00:27:52;;;;;;;14.35;10.80;;;5.80;99.90;;;;;;5044498;28;20052;-37
2023/04/21 00:30:19;;;;;;;12.60;9.43;;;5.80;99.90;;;;;;5045575;28;20061;-38
2023/04/21 00:32:47;;;;;;;13.20;9.85;;;5.70;99.90;;;;;;5046190;28;20049;-37
2023/04/21 00:35:15;;;;;;;12.10;9.68;;;5.70;99.90;;;;;;5044961;28;20608;-37
2023/04/21 00:37:43;;;;;;;12.35;10.43;;;5.70;99.90;;;;;;5045850;28;20498;-36
2023/04/21 00:40:12;;;;;;;13.27;9.52;;;5.70;99.90;;;;;;5041563;28;20052;-36
2023/04/21 00:42:40;;;;;;;16.75;11.07;;;5.60;99.90;;;;;;5042112;28;20041;-37
2023/04/21 00:45:08;;;;;;;13.77;11.68;;;5.60;99.90;;;;;;5045754;28;20458;-37
2023/04/21 00:47:36;;;;;;;14.40;9.60;;;5.50;99.90;;;;;;5060440;28;20080;-37
2023/04/21 00:50:04;;;;;;;30.08;13.10;;;5.50;99.90;;;;;;5045678;28;20057;-37
2023/04/21 00:52:33;;;;;;;15.30;8.65;;;5.50;99.90;;;;;;5044204;28;20055;-37
2023/04/21 00:55:01;;;;;;;11.05;8.82;;;5.40;99.90;;;;;;5044077;28;20506;-37
2023/04/21 00:57:31;;;;;;;15.02;9.88;;;5.30;99.90;;;;;;5044361;28;20060;-37
2023/04/21 00:59:58;;;;;;;11.00;8.48;;;5.20;99.90;;;;;;5044869;28;20064;-37
2023/04/21 01:02:27;;;;;;;12.43;8.30;;;5.20;99.90;;;;;;5059870;28;20053;-36
2023/04/21 01:04:55;;;;;;;11.82;9.93;;;5.20;99.90;;;;;;5045322;28;20410;-37
2023/04/21 01:07:24;;;;;;;11.55;10.07;;;5.10;99.90;;;;;;5059165;28;20045;-36
2023/04/21 01:09:51;;;;;;;10.20;8.02;;;5.10;99.90;;;;;;5045610;28;20056;-36
2023/04/21 01:12:19;;;;;;;13.55;10.15;;;5.10;99.90;;;;;;5043230;28;20056;-37
2023/04/21 01:14:47;;;;;;;9.88;8.45;;;5.00;99.90;;;;;;5039962;28;20049;-36
2023/04/21 01:17:17;;;;;;;10.98;7.95;;;5.10;99.90;;;;;;5044241;28;20099;-36
2023/04/21 01:19:47;;;;;;;14.35;10.35;;;5.10;99.90;;;;;;5044957;28;20048;-37
2023/04/21 01:22:15;;;;;;;14.15;9.43;;;5.00;99.90;;;;;;5044622;28;20087;-36
2023/04/21 01:24:46;;;;;;;15.07;10.43;;;5.00;99.90;;;;;;5045375;28;20048;-36
2023/04/21 01:27:17;;;;;;;11.45;9.68;;;5.00;99.90;;;;;;5044249;28;20045;-37
2023/04/21 01:29:47;;;;;;;11.02;9.77;;;5.10;99.90;;;;;;5044392;28;20057;-38
2023/04/21 01:32:21;;;;;;;15.13;9.30;;;4.90;99.90;;;;;;5044164;28;20128;-37
2023/04/21 01:34:52;;;;;;;12.35;9.13;;;4.90;99.90;;;;;;5044913;28;20048;-37
2023/04/21 01:37:25;;;;;;;13.23;9.95;;;4.80;99.90;;;;;;5044781;28;20049;-36
2023/04/21 01:39:54;;;;;;;20.02;11.45;;;4.80;99.90;;;;;;5044971;28;20065;-36
2023/04/21 01:42:24;;;;;;;13.85;9.88;;;4.90;99.90;;;;;;5043519;28;20432;-36
2023/04/21 01:44:55;;;;;;;9.15;7.88;;;4.80;99.90;;;;;;5060659;28;20053;-36
2023/04/21 01:47:23;;;;;;;12.02;9.85;;;4.80;99.90;;;;;;5043725;28;20067;-37
2023/04/21 01:49:51;;;;;;;11.55;8.93;;;4.70;99.90;;;;;;5039418;28;20059;-37
2023/04/21 01:52:19;;;;;;;15.63;8.70;;;4.70;99.90;;;;;;5046406;28;20052;-37
2023/04/21 01:54:47;;;;;;;11.48;9.10;;;4.70;99.90;;;;;;5046524;28;20049;-37
2023/04/21 01:57:15;;;;;;;11.23;9.95;;;4.60;99.90;;;;;;5047786;28;20056;-36
2023/04/21 01:59:43;;;;;;;12.73;8.90;;;4.60;99.90;;;;;;5063359;28;20052;-36
2023/04/21 02:02:11;;;;;;;13.15;11.57;;;4.70;99.90;;;;;;5046683;28;20064;-36
2023/04/21 02:04:38;;;;;;;20.50;10.75;;;4.70;99.90;;;;;;5048612;28;20483;-36
2023/04/21 02:07:06;;;;;;;15.02;9.75;;;4.80;99.90;;;;;;5046499;28;20045;-36
2023/04/21 02:09:37;;;;;;;12.88;9.60;;;4.80;99.90;;;;;;5048404;28;20064;-38
2023/04/21 02:12:05;;;;;;;17.25;10.45;;;4.80;99.90;;;;;;5048173;28;20772;-38
2023/04/21 02:14:33;;;;;;;12.20;10.80;;;4.80;99.90;;;;;;5047141;28;20049;-36
2023/04/21 02:17:02;;;;;;;12.93;8.82;;;4.80;99.90;;;;;;5048576;28;20052;-38
2023/04/21 02:19:30;;;;;;;13.80;9.32;;;4.80;99.90;;;;;;5049047;28;20053;-37
2023/04/21 02:21:57;;;;;;;11.88;10.57;;;4.90;99.90;;;;;;5048547;28;20515;-37
2023/04/21 02:24:25;;;;;;;10.18;7.93;;;4.90;99.90;;;;;;5045124;28;20056;-36
2023/04/21 02:26:53;;;;;;;12.32;10.90;;;4.90;99.90;;;;;;5063042;28;20041;-36
2023/04/21 02:29:21;;;;;;;14.50;9.65;;;4.90;99.90;;;;;;5047016;28;20060;-37
2023/04/21 02:31:48;;;;;;;10.95;8.50;;;4.90;99.90;;;;;;5046789;28;20055;-37
2023/04/21 02:34:29;;;;;;;10.32;8.38;;;4.90;99.90;;;;;;5047625;28;20072;-41
2023/04/21 02:36:58;;;;;;;12.30;10.65;;;4.90;99.90;;;;;;5049494;28;20044;-36
2023/04/21 02:39:26;;;;;;;11.13;7.93;;;4.80;99.90;;;;;;5047849;28;20045;-36
2023/04/21 02:41:53;;;;;;;10.88;9.55;;;4.80;99.90;;;;;;5046452;28;20052;-37
2023/04/21 02:44:21;;;;;;;10.38;8.82;;;4.80;99.90;;;;;;5046500;28;20048;-36
2023/04/21 02:46:48;;;;;;;12.38;7.97;;;4.80;99.90;;;;;;5047571;28;20272;-36
2023/04/21 02:49:16;;;;;;;10.70;9.60;;;4.70;99.90;;;;;;5046791;28;20064;-36
2023/04/21 02:51:44;;;;;;;10.70;8.85;;;4.60;99.90;;;;;;5046624;28;20044;-35
2023/04/21 02:54:12;;;;;;;7.80;7.00;;;4.40;99.90;;;;;;5045860;28;20056;-36
2023/04/21 02:56:39;;;;;;;9.85;6.95;;;4.40;99.90;;;;;;5047813;28;20053;-38
2023/04/21 02:59:07;;;;;;;10.57;8.52;;;4.40;99.90;;;;;;5046312;28;20777;-36
2023/04/21 03:01:34;;;;;;;9.35;7.97;;;4.40;99.90;;;;;;5046796;28;20045;-36
2023/04/21 03:04:02;;;;;;;11.88;8.65;;;4.30;99.90;;;;;;5046601;28;20053;-36
2023/04/21 03:06:32;;;;;;;9.43;7.93;;;4.40;99.90;;;;;;5047071;28;20045;-37
2023/04/21 03:09:00;;;;;;;13.38;9.40;;;4.40;99.90;;;;;;5047050;28;20067;-37
2023/04/21 03:11:27;;;;;;;11.93;8.75;;;4.40;99.90;;;;;;5047023;28;20052;-36
2023/04/21 03:13:55;;;;;;;14.45;10.27;;;4.50;99.90;;;;;;5046348;28;20052;-36
2023/04/21 03:16:23;;;;;;;15.32;10.93;;;4.50;99.90;;;;;;5046664;28;20060;-37
2023/04/21 03:18:51;;;;;;;9.88;7.70;;;4.50;99.90;;;;;;5047265;28;20044;-37
2023/04/21 03:21:19;;;;;;;11.68;9.25;;;4.40;99.90;;;;;;5061907;28;20082;-39
2023/04/21 03:23:46;;;;;;;9.27;6.78;;;4.40;99.90;;;;;;5045688;28;20053;-36
2023/04/21 03:26:15;;;;;;;11.80;8.68;;;4.30;99.90;;;;;;5062036;28;20061;-36
2023/04/21 03:28:42;;;;;;;11.73;10.50;;;4.30;99.90;;;;;;5046283;28;20392;-36
2023/04/21 03:31:10;;;;;;;11.38;9.20;;;4.30;99.90;;;;;;5044624;28;20049;-37
2023/04/21 03:33:37;;;;;;;9.05;7.95;;;4.40;99.90;;;;;;5047964;28;20045;-37
2023/04/21 03:36:05;;;;;;;9.38;8.50;;;4.30;99.90;;;;;;5061988;28;20041;-38
2023/04/21 03:38:33;;;;;;;10.65;7.63;;;4.30;99.90;;;;;;5046740;28;20045;-36
2023/04/21 03:41:03;;;;;;;11.85;9.80;;;4.30;99.90;;;;;;5062101;28;20063;-36
2023/04/21 03:43:31;;;;;;;10.77;9.52;;;4.30;99.90;;;;;;5044216;28;20041;-38
2023/04/21 03:45:58;;;;;;;13.98;9.00;;;4.30;99.90;;;;;;5047442;28;20044;-36
2023/04/21 03:48:27;;;;;;;13.50;10.77;;;4.20;99.90;;;;;;5044670;28;20045;-37
2023/04/21 03:50:55;;;;;;;13.15;9.32;;;4.20;99.90;;;;;;5045803;28;20030;-36
2023/04/21 03:53:22;;;;;;;11.05;8.75;;;4.20;99.90;;;;;;5046662;28;20057;-38
2023/04/21 03:55:50;;;;;;;11.40;8.55;;;4.30;99.90;;;;;;5046183;28;20452;-37
2023/04/21 03:58:18;;;;;;;10.50;8.15;;;4.30;99.90;;;;;;5045177;28;20056;-36
2023/04/21 04:00:45;;;;;;;15.57;9.52;;;4.30;99.90;;;;;;5046529;28;20061;-36
2023/04/21 04:03:13;;;;;;;13.43;10.23;;;4.20;99.90;;;;;;5046053;28;20052;-37
2023/04/21 04:05:41;;;;;;;11.07;7.93;;;4.20;99.90;;;;;;5046261;28;20045;-38
2023/04/21 04:08:08;;;;;;;13.75;11.68;;;4.20;99.90;;;;;;5045797;28;20048;-36
2023/04/21 04:10:36;;;;;;;14.98;9.77;;;4.20;99.90;;;;;;5042595;28;20041;-37
2023/04/21 04:13:03;;;;;;;17.25;13.50;;;4.30;99.90;;;;;;5045435;28;20052;-36
2023/04/21 04:15:31;;;;;;;17.00;13.65;;;4.40;99.90;;;;;;5045137;28;20052;-37
2023/04/21 04:17:59;;;;;;;12.85;9.60;;;4.50;99.90;;;;;;5046695;28;20053;-36
2023/04/21 04:20:27;;;;;;;13.00;10.25;;;4.50;99.90;;;;;;5043128;28;20045;-38
2023/04/21 04:22:54;;;;;;;12.73;10.35;;;4.40;99.90;;;;;;5043654;28;20052;-36
2023/04/21 04:25:22;;;;;;;10.60;9.30;;;4.40;99.90;;;;;;5046099;28;20056;-36
2023/04/21 04:27:49;;;;;;;10.45;9.38;;;4.40;99.90;;;;;;5045158;28;20053;-36
2023/04/21 04:30:17;;;;;;;13.10;9.35;;;4.40;99.90;;;;;;5045440;28;20509;-37
2023/04/21 04:32:44;;;;;;;13.25;10.65;;;4.40;99.90;;;;;;5044486;28;20144;-38
2023/04/21 04:35:13;;;;;;;14.00;11.13;;;4.40;99.90;;;;;;5046177;28;20047;-37
2023/04/21 04:37:40;;;;;;;13.48;11.82;;;4.40;99.90;;;;;;5045070;28;20426;-40
2023/04/21 04:40:11;;;;;;;15.13;11.23;;;4.40;99.90;;;;;;5045543;28;20053;-37
2023/04/21 04:42:39;;;;;;;12.33;9.80;;;4.40;99.90;;;;;;5043528;28;20051;-37
2023/04/21 04:45:07;;;;;;;14.60;10.98;;;4.50;99.90;;;;;;5046248;28;20507;-36
2023/04/21 04:47:34;;;;;;;13.70;9.98;;;4.50;99.90;;;;;;5044932;28;20053;-37
2023/04/21 04:50:03;;;;;;;12.60;10.10;;;4.60;99.90;;;;;;5044358;28;20061;-37
2023/04/21 04:52:30;;;;;;;12.75;10.38;;;4.60;99.90;;;;;;5044687;28;20437;-37
2023/04/21 04:54:58;;;;;;;14.27;9.93;;;4.60;99.90;;;;;;5052218;28;20060;-37
2023/04/21 04:57:25;;;;;;;15.63;11.73;;;4.60;99.90;;;;;;5059615;28;20413;-37
2023/04/21 04:59:56;;;;;;;14.13;10.77;;;4.60;99.90;;;;;;5030781;28;20068;-37
2023/04/21 05:02:24;;;;;;;14.67;11.83;;;4.50;99.90;;;;;;5040807;28;20067;-37
2023/04/21 05:04:52;;;;;;;12.02;9.40;;;4.60;99.90;;;;;;5032298;28;20049;-36
2023/04/21 05:07:19;;;;;;;14.05;9.98;;;4.50;99.90;;;;;;5025810;28;20049;-37
2023/04/21 05:09:47;;;;;;;15.23;10.73;;;4.60;99.90;;;;;;5026555;28;20380;-38
2023/04/21 05:12:15;;;;;;;18.58;11.02;;;4.80;99.90;;;;;;5023094;28;20042;-36
2023/04/21 05:14:42;;;;;;;13.65;11.15;;;4.90;99.90;;;;;;5024554;28;20076;-37
2023/04/21 05:17:10;;;;;;;13.82;10.45;;;5.00;99.90;;;;;;5023049;28;20050;-36
2023/04/21 05:19:37;;;;;;;14.52;11.23;;;5.10;99.90;;;;;;5022758;28;20489;-36
2023/04/21 05:22:05;;;;;;;14.13;10.93;;;5.20;99.90;;;;;;5024716;28;20458;-37
2023/04/21 05:24:33;;;;;;;15.85;11.77;;;5.30;99.90;;;;;;5024015;28;20443;-38
2023/04/21 05:27:01;;;;;;;13.55;10.82;;;5.30;99.90;;;;;;5031815;28;20041;-36
2023/04/21 05:29:29;;;;;;;15.60;11.60;;;5.40;99.90;;;;;;5024275;28;20401;-37
2023/04/21 05:31:57;;;;;;;18.75;11.85;;;5.30;99.90;;;;;;5024226;28;20060;-38
2023/04/21 05:34:25;;;;;;;18.40;11.88;;;5.40;99.90;;;;;;5018287;28;20050;-36
2023/04/21 05:36:52;;;;;;;12.30;10.35;;;5.50;99.90;;;;;;5025127;28;20068;-37
2023/04/21 05:39:19;;;;;;;13.48;10.40;;;5.60;99.90;;;;;;5034627;28;20068;-37
2023/04/21 05:41:47;;;;;;;16.33;11.65;;;5.80;99.90;;;;;;5040037;28;20356;-37
2023/04/21 05:44:18;;;;;;;16.50;11.65;;;5.90;99.90;;;;;;5043594;28;20057;-36
2023/04/21 05:46:46;;;;;;;17.73;12.82;;;6.00;99.90;;;;;;5045041;28;20044;-36
2023/04/21 05:49:13;;;;;;;16.00;12.02;;;6.20;99.90;;;;;;5045059;28;20068;-36
2023/04/21 05:51:41;;;;;;;16.50;12.25;;;6.50;99.90;;;;;;5035286;28;20111;-37
2023/04/21 05:54:08;;;;;;;15.48;12.00;;;6.50;99.90;;;;;;5044012;28;20433;-37
2023/04/21 05:56:36;;;;;;;14.40;12.75;;;6.30;99.90;;;;;;5044564;28;20453;-36
2023/04/21 05:59:05;;;;;;;20.05;14.02;;;6.40;99.90;;;;;;5042759;28;20056;-37
2023/04/21 06:01:33;;;;;;;16.17;10.35;;;6.40;99.90;;;;;;5044838;28;20049;-48
2023/04/21 06:04:00;;;;;;;16.10;11.63;;;6.40;99.90;;;;;;5044033;28;20049;-47
2023/04/21 06:06:29;;;;;;;17.50;13.18;;;6.40;99.90;;;;;;5044863;28;20037;-47
2023/04/21 06:08:57;;;;;;;15.32;12.75;;;6.50;99.90;;;;;;5044758;28;20057;-47
2023/04/21 06:11:24;;;;;;;19.17;13.02;;;6.60;99.90;;;;;;5030953;28;20409;-47
2023/04/21 06:13:57;;;;;;;18.40;12.95;;;6.80;99.90;;;;;;5034145;28;20060;-47
2023/04/21 06:16:25;;;;;;;17.67;14.40;;;6.80;99.90;;;;;;5044373;28;20041;-47
2023/04/21 06:18:52;;;;;;;18.05;13.80;;;6.90;99.90;;;;;;5043690;28;20052;-47
2023/04/21 06:21:20;;;;;;;16.33;12.05;;;7.20;99.90;;;;;;5043981;28;20360;-47
2023/04/21 06:23:47;;;;;;;14.30;12.15;;;7.70;99.90;;;;;;5043555;28;20364;-47
2023/04/21 06:26:15;;;;;;;16.13;11.07;;;8.00;99.90;;;;;;5044239;28;20810;-47
2023/04/21 06:28:42;;;;;;;16.95;13.55;;;8.10;99.90;;;;;;5043700;28;20060;-47
2023/04/21 06:31:14;;;;;;;17.33;11.80;;;8.30;99.90;;;;;;5044016;28;20037;-47
2023/04/21 06:33:42;;;;;;;16.33;12.20;;;8.20;99.90;;;;;;5044406;28;20483;-47
2023/04/21 06:36:09;;;;;;;17.92;12.70;;;8.30;99.90;;;;;;5047463;28;20045;-46
2023/04/21 06:38:38;;;;;;;15.15;13.52;;;8.60;99.90;;;;;;5045533;28;20425;-47
2023/04/21 06:41:06;;;;;;;19.52;13.80;;;8.90;99.90;;;;;;5048063;28;20060;-47
2023/04/21 06:43:33;;;;;;;17.77;12.38;;;10.00;99.90;;;;;;5046502;28;20528;-47
2023/04/21 06:46:01;;;;;;;13.23;11.20;;;11.10;99.90;;;;;;5048011;28;20052;-47
2023/04/21 06:48:29;;;;;;;12.30;9.52;;;11.70;99.90;;;;;;5047640;28;20049;-46
2023/04/21 06:50:56;;;;;;;17.52;12.93;;;11.60;99.90;;;;;;5027597;28;20341;-47
2023/04/21 06:53:23;;;;;;;18.73;13.52;;;11.70;99.90;;;;;;5028369;28;20429;-47
2023/04/21 06:55:52;;;;;;;20.88;14.13;;;12.60;99.90;;;;;;5028307;28;20049;-46
2023/04/21 06:58:20;;;;;;;17.85;13.13;;;13.30;99.90;;;;;;5026814;28;20401;-47
2023/04/21 07:00:48;;;;;;;19.50;14.10;;;13.40;99.90;;;;;;5027941;28;20427;-47
2023/04/21 07:03:15;;;;;;;15.77;13.95;;;13.30;99.90;;;;;;5028295;28;20477;-47
2023/04/21 07:05:43;;;;;;;17.90;12.32;;;13.50;99.90;;;;;;5027096;28;20061;-47
2023/04/21 07:08:10;;;;;;;25.83;14.65;;;13.90;99.90;;;;;;5027480;28;20053;-47
2023/04/21 07:10:38;;;;;;;21.50;13.43;;;13.90;99.90;;;;;;5027190;28;20048;-46
2023/04/21 07:13:06;;;;;;;19.77;14.02;;;13.70;99.90;;;;;;5026828;28;20064;-47
2023/04/21 07:15:36;;;;;;;19.15;14.30;;;13.30;99.90;;;;;;5026463;28;20060;-47
2023/04/21 07:18:04;;;;;;;20.15;14.57;;;14.00;99.90;;;;;;5027726;28;20050;-47
2023/04/21 07:20:31;;;;;;;15.98;11.90;;;13.00;99.90;;;;;;5026808;28;20368;-47
2023/04/21 07:22:59;;;;;;;17.38;12.38;;;13.10;99.90;;;;;;5027144;28;20257;-46
2023/04/21 07:25:26;;;;;;;23.27;16.08;;;14.40;99.90;;;;;;5026706;28;20058;-47
2023/04/21 07:27:54;;;;;;;17.40;12.38;;;15.80;99.90;;;;;;5024712;28;20064;-47
2023/04/21 07:30:21;;;;;;;19.83;14.15;;;15.70;99.90;;;;;;5019795;28;20057;-47
2023/04/21 07:32:49;;;;;;;17.55;14.65;;;16.40;99.90;;;;;;5026803;28;20057;-47
2023/04/21 07:35:17;;;;;;;18.15;14.23;;;16.00;99.90;;;;;;5018676;28;20068;-46
2023/04/21 07:37:45;;;;;;;17.33;12.75;;;15.50;99.90;;;;;;5025345;28;20422;-47
2023/04/21 07:40:13;;;;;;;22.42;15.45;;;15.10;99.90;;;;;;5024720;28;20072;-46
2023/04/21 07:42:41;;;;;;;16.63;14.50;;;15.00;99.90;;;;;;5025793;28;20041;-47
2023/04/21 07:45:08;;;;;;;17.63;12.45;;;14.80;99.90;;;;;;5026925;28;20410;-47
2023/04/21 07:47:36;;;;;;;17.20;12.80;;;16.20;99.90;;;;;;5025802;28;20052;-47
2023/04/21 07:50:04;;;;;;;20.67;14.23;;;15.90;99.90;;;;;;5039688;28;20053;-47
2023/04/21 07:52:32;;;;;;;24.13;14.68;;;15.40;99.90;;;;;;5046199;28;20052;-47
2023/04/21 07:55:00;;;;;;;17.25;12.90;;;14.10;99.90;;;;;;5046360;28;20056;-47
2023/04/21 07:57:27;;;;;;;20.08;13.05;;;13.00;99.90;;;;;;5045295;28;20452;-47
2023/04/21 07:59:55;;;;;;;21.70;14.38;;;11.70;99.90;;;;;;5046155;28;20421;-47
2023/04/21 08:02:22;;;;;;;22.88;15.20;;;10.90;99.90;;;;;;5046264;28;20056;-47
2023/04/21 08:04:50;;;;;;;21.67;14.23;;;10.90;99.90;;;;;;5047285;28;20709;-47
2023/04/21 08:07:18;;;;;;;17.65;13.90;;;11.00;99.90;;;;;;5045288;28;20057;-47
2023/04/21 08:09:45;;;;;;;24.02;13.30;;;11.60;99.90;;;;;;5047342;28;20120;-47
2023/04/21 08:12:13;;;;;;;20.73;13.60;;;12.10;99.90;;;;;;5044832;28;20053;-47
2023/04/21 08:14:41;;;;;;;19.63;13.55;;;12.30;99.90;;;;;;5038415;28;20053;-47
2023/04/21 08:17:09;;;;;;;23.02;15.57;;;12.30;99.90;;;;;;5046211;28;20501;-46
2023/04/21 08:19:36;;;;;;;19.27;14.25;;;11.90;99.90;;;;;;5045336;28;20052;-46
2023/04/21 08:22:03;;;;;;;19.75;13.75;;;11.40;99.90;;;;;;5043496;28;20084;-46
2023/04/21 08:24:31;;;;;;;23.60;15.60;;;11.10;99.90;;;;;;5045048;28;20060;-46
2023/04/21 08:27:00;;;;;;;21.65;15.13;;;10.90;99.90;;;;;;5046202;28;20044;-46
2023/04/21 08:29:28;;;;;;;23.25;16.67;;;10.70;99.90;;;;;;5045069;28;20049;-47
2023/04/21 08:31:56;;;;;;;20.70;13.77;;;11.00;99.90;;;;;;5045425;28;20059;-46
2023/04/21 08:34:23;;;;;;;20.20;14.50;;;12.20;99.90;;;;;;5045701;28;20421;-46
2023/04/21 08:36:54;;;;;;;19.50;15.03;;;13.40;99.90;;;;;;5045710;28;20056;-46
2023/04/21 08:39:22;;;;;;;20.95;12.98;;;14.10;99.90;;;;;;5045028;28;20413;-46
2023/04/21 08:41:50;;;;;;;21.17;13.77;;;14.40;99.90;;;;;;5045925;28;20057;-46
2023/04/21 08:44:19;;;;;;;19.08;13.55;;;15.50;99.90;;;;;;5035411;28;20069;-46
2023/04/21 08:46:49;;;;;;;17.33;12.27;;;15.90;99.90;;;;;;5044510;28;20296;-46
2023/04/21 08:49:20;;;;;;;20.13;14.48;;;15.80;99.90;;;;;;5044816;28;20053;-46
2023/04/21 08:51:48;;;;;;;20.85;12.57;;;15.30;99.90;;;;;;5044589;28;20433;-46
2023/04/21 08:54:15;;;;;;;18.55;12.45;;;15.10;99.90;;;;;;5044687;28;20052;-46
2023/04/21 08:56:43;;;;;;;16.25;11.23;;;14.50;99.90;;;;;;5044878;28;20052;-46
2023/04/21 08:59:10;;;;;;;14.70;11.40;;;13.80;99.90;;;;;;5043485;28;20048;-46
2023/04/21 09:02:16;;;;;;;15.45;11.30;;;13.40;99.90;;;;;;5044649;28;20052;-46
2023/04/21 09:04:45;;;;;;;17.98;11.57;;;13.00;99.90;;;;;;5042090;28;20639;-47
2023/04/21 09:07:34;;;;;;;20.52;13.30;;;13.90;99.90;;;;;;5044730;28;20064;-46
2023/04/21 09:10:04;;;;;;;16.80;11.20;;;15.30;99.90;;;;;;5042944;28;20068;-46
2023/04/21 09:12:32;;;;;;;10.63;9.00;;;14.60;99.90;;;;;;5043011;28;20467;-47
2023/04/21 09:15:04;;;;;;;21.92;12.30;;;14.50;99.90;;;;;;5042757;28;20442;-47
2023/04/21 09:17:32;;;;;;;14.20;10.23;;;14.40;99.90;;;;;;5044959;28;20049;-46
2023/04/21 09:20:17;;;;;;;17.02;11.32;;;14.30;99.90;;;;;;5043986;28;20055;-46
2023/04/21 09:22:48;;;;;;;12.20;9.63;;;14.30;99.90;;;;;;5044487;28;20112;-46
2023/04/21 09:25:19;;;;;;;11.57;9.43;;;14.30;99.90;;;;;;5042286;28;20561;-46
2023/04/21 09:27:47;;;;;;;11.82;8.45;;;14.10;99.90;;;;;;5043989;28;20060;-46
2023/04/21 09:30:18;;;;;;;13.90;10.63;;;13.80;99.90;;;;;;5044285;28;20068;-46
2023/04/21 09:32:46;;;;;;;11.27;8.77;;;13.80;99.90;;;;;;5044250;28;20053;-46
2023/04/21 09:35:14;;;;;;;16.10;11.05;;;13.80;99.90;;;;;;5044183;28;20048;-46
2023/04/21 09:37:45;;;;;;;13.73;10.68;;;13.70;99.90;;;;;;5040379;28;20053;-46
2023/04/21 09:40:14;;;;;;;15.02;11.88;;;13.80;99.90;;;;;;5044416;28;20049;-46
2023/04/21 09:42:42;;;;;;;15.88;10.90;;;13.40;99.90;;;;;;5043472;28;20128;-46
2023/04/21 09:45:13;;;;;;;19.23;12.20;;;13.20;99.90;;;;;;5045603;28;20059;-46
2023/04/21 09:47:52;;;;;;;13.88;10.82;;;13.60;99.90;;;;;;5035999;28;20421;-46
2023/04/21 09:50:21;;;;;;;17.27;12.18;;;14.10;99.90;;;;;;5043456;28;20068;-48
2023/04/21 09:53:15;;;;;;;17.63;11.60;;;14.60;99.90;;;;;;5043529;28;20056;-46
2023/04/21 09:55:48;;;;;;;14.68;11.65;;;14.40;99.90;;;;;;5042757;28;20053;-46
2023/04/21 09:58:19;;;;;;;10.38;8.00;;;13.90;99.90;;;;;;5043321;28;20440;-46
2023/04/21 10:00:47;;;;;;;;;;;13.60;99.90;;;;;;5045007;28;20053;-46
2023/04/21 10:03:16;;;;;;;11.05;8.30;;;13.60;99.90;;;;;;5044525;28;20176;-46
2023/04/21 10:05:44;;;;;;;12.75;10.23;;;13.80;99.90;;;;;;5043363;28;20049;-46
2023/04/21 10:08:12;;;;;;;12.63;10.93;;;13.80;99.90;;;;;;5044560;28;20410;-46
2023/04/21 10:10:40;;;;;;;14.13;9.05;;;13.90;99.90;;;;;;5046813;28;20474;-46
2023/04/21 10:13:14;;;;;;;15.40;10.93;;;13.90;99.90;;;;;;5047165;28;20063;-46
2023/04/21 10:15:42;;;;;;;14.77;8.35;;;13.90;99.90;;;;;;5042559;28;20068;-46
2023/04/21 10:18:23;;;;;;;12.15;9.15;;;14.00;99.90;;;;;;5048714;28;20369;-37
2023/04/21 10:20:57;;;;;;;14.45;10.65;;;14.00;99.90;;;;;;5047216;28;20060;-37
2023/04/21 10:23:27;;;;;;;15.80;11.40;;;13.80;99.90;;;;;;5047477;28;20398;-37
2023/04/21 10:26:16;;;;;;;15.10;10.60;;;13.70;99.90;;;;;;5048267;28;20053;-37
2023/04/21 10:28:43;;;;;;;15.55;10.48;;;13.70;99.90;;;;;;5043901;28;20060;-37
2023/04/21 10:31:22;;;;;;;15.68;11.63;;;13.70;99.90;;;;;;5047967;28;20080;-36
2023/04/21 10:34:07;;;;;;;12.82;10.45;;;13.60;99.90;;;;;;5047899;28;20083;-37
2023/04/21 10:37:01;;;;;;;17.60;13.05;;;13.60;99.90;;;;;;5046327;28;20048;-37
2023/04/21 10:39:41;;;;;;;17.10;10.38;;;13.70;99.90;;;;;;5037617;28;20040;-37
2023/04/21 10:42:19;;;;;;;17.33;11.07;;;13.70;99.90;;;;;;5044380;28;20064;-36
2023/04/21 10:44:51;;;;;;;17.20;10.43;;;13.60;99.90;;;;;;5039456;28;20053;-37
2023/04/21 10:47:36;;;;;;;13.00;9.68;;;13.30;99.90;;;;;;5047569;28;20045;-37
2023/04/21 10:50:19;;;;;;;11.55;8.75;;;13.40;99.90;;;;;;5046994;28;20053;-37
2023/04/21 10:52:53;;;;;;;10.57;7.72;;;13.40;99.90;;;;;;5021740;28;20041;-37
2023/04/21 10:55:24;;;;;;;6.70;5.43;;;13.40;99.90;;;;;;5046631;28;20048;-38
2023/04/21 10:57:52;;;;;;;10.73;9.35;;;13.50;99.90;;;;;;5039456;28;20061;-37
2023/04/21 11:00:22;;;;;;;11.48;10.27;;;13.50;99.90;;;;;;5047082;28;20041;-37
2023/04/21 11:02:58;;;;;;;13.02;8.43;;;13.50;99.90;;;;;;5046527;28;20044;-37
2023/04/21 11:05:28;;;;;;;19.63;7.93;;;13.50;99.90;;;;;;5047169;28;20059;-37
2023/04/21 11:08:10;;;;;;;9.95;8.40;;;13.70;99.90;;;;;;5046612;28;20045;-36
2023/04/21 11:10:55;;;;;;;10.07;6.35;;;13.50;99.90;;;;;;5046286;28;20052;-37
2023/04/21 11:13:25;;;;;;;13.48;9.90;;;13.50;99.90;;;;;;5044665;28;20324;-37
2023/04/21 11:16:01;;;;;;;11.52;8.43;;;13.80;99.90;;;;;;5046521;28;20041;-37
2023/04/21 11:18:47;;;;;;;8.30;6.90;;;14.20;99.90;;;;;;5046833;28;20068;-37
2023/04/21 11:21:17;;;;;;;11.73;8.50;;;14.30;99.90;;;;;;5046246;28;20076;-37
2023/04/21 11:23:51;;;;;;;8.57;7.00;;;14.30;99.90;;;;;;5046643;28;20045;-37
2023/04/21 11:26:33;;;;;;;10.07;6.55;;;14.40;99.90;;;;;;5047053;28;20353;-39
2023/04/21 11:29:06;;;;;;;11.27;7.35;;;14.60;99.90;;;;;;5046147;28;20059;-37
2023/04/21 11:31:36;;;;;;;8.15;6.18;;;14.60;99.90;;;;;;5045670;28;20442;-36
2023/04/21 11:34:05;;;;;;;;;;;14.50;99.90;;;;;;5047976;28;20063;-35
2023/04/21 11:36:34;;;;;;;8.90;5.45;;;14.50;99.90;;;;;;5046428;28;19932;-36
2023/04/21 11:39:09;;;;;;;8.32;6.57;;;14.60;99.90;;;;;;5044136;28;20043;-37
2023/04/21 11:41:48;;;;;;;8.32;7.43;;;14.90;99.90;;;;;;5044815;28;20056;-35
2023/04/21 11:44:31;;;;;;;11.23;6.80;;;15.30;99.90;;;;;;5045910;28;20052;-36
2023/04/21 11:46:59;;;;;;;9.63;7.10;;;15.60;99.90;;;;;;5042963;28;20071;-36
2023/04/21 11:49:28;;;;;;;14.77;6.65;;;15.70;99.90;;;;;;5046706;28;20071;-38
2023/04/21 11:51:55;;;;;;;12.40;8.02;;;16.00;99.90;;;;;;5046099;28;20053;-37
2023/04/21 11:54:23;;;;;;;7.25;5.53;;;16.00;99.90;;;;;;5046022;28;20057;-37
2023/04/21 11:56:53;;;;;;;8.20;7.15;;;16.20;99.90;;;;;;5046848;28;20107;-35
2023/04/21 11:59:24;;;;;;;6.35;5.72;;;16.40;99.90;;;;;;5044992;28;20052;-35
2023/04/21 12:01:53;;;;;;;8.48;6.10;;;16.40;99.90;;;;;;5045791;28;20068;-36
2023/04/21 12:04:22;;;;;;;9.18;7.03;;;16.40;99.90;;;;;;5045823;28;20345;-37
2023/04/21 12:06:58;;;;;;;7.30;6.07;;;16.30;99.90;;;;;;5046260;28;20049;-36
2023/04/21 12:09:28;;;;;;;8.63;6.03;;;16.10;99.90;;;;;;5038156;28;20053;-36
2023/04/21 12:11:57;;;;;;;10.20;7.80;;;15.80;99.90;;;;;;5045474;28;20057;-37
2023/04/21 12:14:25;;;;;;;10.57;6.20;;;15.70;99.90;;;;;;5042641;28;20045;-38
2023/04/21 12:16:57;;;;;;;10.02;6.32;;;15.80;99.90;;;;;;5046049;28;20053;-36
2023/04/21 12:19:35;;;;;;;9.95;5.38;;;15.70;99.90;;;;;;5045794;28;20063;-36
2023/04/21 12:22:07;;;;;;;13.23;8.00;;;15.70;99.90;;;;;;5045384;28;20300;-37
2023/04/21 12:24:36;;;;;;;5.35;4.85;;;15.90;99.90;;;;;;5044282;28;20119;-36
2023/04/21 12:27:05;;;;;;;6.65;6.00;;;15.70;99.90;;;;;;5045708;28;20041;-37
2023/04/21 12:29:37;;;;;;;4.47;4.13;;;15.50;99.90;;;;;;5045320;28;20069;-37
2023/04/21 12:32:06;;;;;;;7.13;5.20;;;15.40;99.90;;;;;;5041079;28;20060;-39
2023/04/21 12:34:34;;;;;;;6.97;5.47;;;15.60;99.90;;;;;;5044165;28;20049;-36
2023/04/21 12:37:02;;;;;;;7.28;4.40;;;15.80;99.90;;;;;;5046188;28;20185;-37
2023/04/21 12:39:30;;;;;;;4.90;4.50;;;16.10;99.90;;;;;;5045419;28;20049;-37
2023/04/21 12:41:58;;;;;;;3.75;3.45;;;16.40;99.90;;;;;;5046088;28;20533;-36
2023/04/21 12:44:26;;;;;;;3.30;3.10;;;16.60;99.90;;;;;;5043369;28;20057;-49
2023/04/21 12:46:54;;;;;;;4.85;4.45;;;16.70;99.90;;;;;;5045380;28;20041;-48
2023/04/21 12:49:22;;;;;;;4.28;3.22;;;16.80;99.90;;;;;;5045380;28;20064;-48